Decoded Metar for RPLB (OLONGAPO/SUBIC in PHILIPPINES) (IATA:N/A) | Meteo·Mobile Aviation Weather
aviador You're here:

RPLB Decoded Metar

OLONGAPO/SUBIC in PHILIPPINES
Report Time2018-12-10 10:00:00
UTC Time2018-12-10 10:38:07
Flight Rules vfr VFR
WindVRB at 03 kt
Visibility9999 m
Phenomena:N/A
Clouds:Few 020 Hf
Scattered 080 Hf
Expected CloudBase > 3,600 ft AGL from Temp-Dew spread
CeilingNone
Temp30°C (ISA +15)
Dew Point21°C (59% RH)
Heat Index32.6°C
QNH1011 hPa
Density Alt2,182 ft
Elevation56 ft
Report Wrong Elevation
Raw Report
METAR RPLB 101000Z VRB03KT 9999 FEW020 SCT080 30/21 Q1011 NOSIG RMK
A2985=

Extra information for RPLB:More info

Metar Taf Metar & Taf Last 4 Metars F.Rules Stats Wind Profile Meteogram Temp Stats Airport Information Weather charts Add Link Nearby VenuesMetar ALERT Operation Metar Decoded Social comments